sensor_id;sensor_type;location;lat;lon;timestamp;P1;durP1;ratioP1;P2;durP2;ratioP2
52043;SDS011;38053;53.100;6.078;2023-05-14T00:00:51;20.77;;;9.73;;
52043;SDS011;38053;53.100;6.078;2023-05-14T00:03:16;14.68;;;9.10;;
52043;SDS011;38053;53.100;6.078;2023-05-14T00:05:42;14.20;;;9.07;;
52043;SDS011;38053;53.100;6.078;2023-05-14T00:08:08;14.38;;;8.68;;
52043;SDS011;38053;53.100;6.078;2023-05-14T00:10:33;14.07;;;9.68;;
52043;SDS011;38053;53.100;6.078;2023-05-14T00:12:59;13.85;;;9.00;;
52043;SDS011;38053;53.100;6.078;2023-05-14T00:15:25;15.38;;;9.02;;
52043;SDS011;38053;53.100;6.078;2023-05-14T00:17:51;15.75;;;10.48;;
52043;SDS011;38053;53.100;6.078;2023-05-14T00:20:17;19.20;;;9.45;;
52043;SDS011;38053;53.100;6.078;2023-05-14T00:22:42;15.07;;;9.68;;
52043;SDS011;38053;53.100;6.078;2023-05-14T00:25:08;12.70;;;9.98;;
52043;SDS011;38053;53.100;6.078;2023-05-14T00:27:34;14.68;;;10.40;;
52043;SDS011;38053;53.100;6.078;2023-05-14T00:30:02;20.38;;;11.02;;
52043;SDS011;38053;53.100;6.078;2023-05-14T00:32:29;19.02;;;11.43;;
52043;SDS011;38053;53.100;6.078;2023-05-14T00:34:55;18.15;;;11.05;;
52043;SDS011;38053;53.100;6.078;2023-05-14T00:37:21;19.92;;;12.20;;
52043;SDS011;38053;53.100;6.078;2023-05-14T00:39:47;18.27;;;11.95;;
52043;SDS011;38053;53.100;6.078;2023-05-14T00:42:13;22.20;;;11.85;;
52043;SDS011;38053;53.100;6.078;2023-05-14T00:44:38;20.23;;;11.90;;
52043;SDS011;38053;53.100;6.078;2023-05-14T00:47:04;15.15;;;11.85;;
52043;SDS011;38053;53.100;6.078;2023-05-14T00:49:30;17.65;;;12.88;;
52043;SDS011;38053;53.100;6.078;2023-05-14T00:51:56;22.13;;;12.60;;
52043;SDS011;38053;53.100;6.078;2023-05-14T00:54:24;20.13;;;12.60;;
52043;SDS011;38053;53.100;6.078;2023-05-14T00:56:51;16.30;;;12.60;;
52043;SDS011;38053;53.100;6.078;2023-05-14T00:59:17;16.33;;;11.68;;
52043;SDS011;38053;53.100;6.078;2023-05-14T01:01:43;22.35;;;13.10;;
52043;SDS011;38053;53.100;6.078;2023-05-14T01:04:09;17.33;;;11.77;;
52043;SDS011;38053;53.100;6.078;2023-05-14T01:15:18;15.32;;;11.15;;
52043;SDS011;38053;53.100;6.078;2023-05-14T01:17:50;19.65;;;12.02;;
52043;SDS011;38053;53.100;6.078;2023-05-14T01:20:19;21.58;;;12.98;;
52043;SDS011;38053;53.100;6.078;2023-05-14T01:22:45;23.13;;;12.93;;
52043;SDS011;38053;53.100;6.078;2023-05-14T01:25:11;14.68;;;11.38;;
52043;SDS011;38053;53.100;6.078;2023-05-14T01:27:43;19.85;;;12.40;;
52043;SDS011;38053;53.100;6.078;2023-05-14T01:30:20;15.77;;;11.25;;
52043;SDS011;38053;53.100;6.078;2023-05-14T01:32:54;18.33;;;11.93;;
52043;SDS011;38053;53.100;6.078;2023-05-14T01:35:24;19.77;;;12.40;;
52043;SDS011;38053;53.100;6.078;2023-05-14T01:37:52;19.27;;;12.32;;
52043;SDS011;38053;53.100;6.078;2023-05-14T01:40:21;19.90;;;12.90;;
52043;SDS011;38053;53.100;6.078;2023-05-14T01:42:47;22.33;;;15.02;;
52043;SDS011;38053;53.100;6.078;2023-05-14T01:45:16;22.55;;;13.10;;
52043;SDS011;38053;53.100;6.078;2023-05-14T01:47:44;14.35;;;12.10;;
52043;SDS011;38053;53.100;6.078;2023-05-14T01:50:09;22.42;;;12.55;;
52043;SDS011;38053;53.100;6.078;2023-05-14T01:52:35;18.63;;;13.48;;
52043;SDS011;38053;53.100;6.078;2023-05-14T01:55:01;22.27;;;12.48;;
52043;SDS011;38053;53.100;6.078;2023-05-14T01:57:28;23.90;;;12.20;;
52043;SDS011;38053;53.100;6.078;2023-05-14T01:59:53;22.83;;;11.88;;
52043;SDS011;38053;53.100;6.078;2023-05-14T02:02:19;26.83;;;12.00;;
52043;SDS011;38053;53.100;6.078;2023-05-14T02:04:45;19.77;;;14.25;;
52043;SDS011;38053;53.100;6.078;2023-05-14T02:07:10;19.27;;;12.70;;
52043;SDS011;38053;53.100;6.078;2023-05-14T02:09:36;22.95;;;12.55;;
52043;SDS011;38053;53.100;6.078;2023-05-14T02:12:02;25.95;;;12.77;;
52043;SDS011;38053;53.100;6.078;2023-05-14T02:14:28;23.13;;;12.52;;
52043;SDS011;38053;53.100;6.078;2023-05-14T02:16:53;18.60;;;12.65;;
52043;SDS011;38053;53.100;6.078;2023-05-14T02:19:19;18.40;;;13.55;;
52043;SDS011;38053;53.100;6.078;2023-05-14T02:21:45;20.13;;;13.20;;
52043;SDS011;38053;53.100;6.078;2023-05-14T02:24:11;24.42;;;13.88;;
52043;SDS011;38053;53.100;6.078;2023-05-14T02:26:36;25.00;;;13.65;;
52043;SDS011;38053;53.100;6.078;2023-05-14T02:29:02;16.77;;;13.27;;
52043;SDS011;38053;53.100;6.078;2023-05-14T02:31:28;27.75;;;12.57;;
52043;SDS011;38053;53.100;6.078;2023-05-14T02:33:53;20.35;;;13.10;;
52043;SDS011;38053;53.100;6.078;2023-05-14T02:36:19;24.17;;;13.63;;
52043;SDS011;38053;53.100;6.078;2023-05-14T02:38:45;21.88;;;14.63;;
52043;SDS011;38053;53.100;6.078;2023-05-14T02:41:10;28.38;;;14.63;;
52043;SDS011;38053;53.100;6.078;2023-05-14T02:43:36;20.70;;;13.52;;
52043;SDS011;38053;53.100;6.078;2023-05-14T02:46:02;23.80;;;13.82;;
52043;SDS011;38053;53.100;6.078;2023-05-14T02:48:27;23.83;;;15.80;;
52043;SDS011;38053;53.100;6.078;2023-05-14T02:50:53;28.45;;;14.90;;
52043;SDS011;38053;53.100;6.078;2023-05-14T02:53:19;23.90;;;15.13;;
52043;SDS011;38053;53.100;6.078;2023-05-14T02:55:45;24.65;;;15.23;;
52043;SDS011;38053;53.100;6.078;2023-05-14T02:58:10;25.98;;;14.20;;
52043;SDS011;38053;53.100;6.078;2023-05-14T03:00:36;33.10;;;16.98;;
52043;SDS011;38053;53.100;6.078;2023-05-14T03:03:02;28.05;;;15.40;;
52043;SDS011;38053;53.100;6.078;2023-05-14T03:05:27;27.00;;;16.33;;
52043;SDS011;38053;53.100;6.078;2023-05-14T03:07:53;24.55;;;14.63;;
52043;SDS011;38053;53.100;6.078;2023-05-14T03:10:19;27.55;;;15.27;;
52043;SDS011;38053;53.100;6.078;2023-05-14T03:12:44;22.35;;;15.00;;
52043;SDS011;38053;53.100;6.078;2023-05-14T03:15:11;28.15;;;15.45;;
52043;SDS011;38053;53.100;6.078;2023-05-14T03:17:37;31.70;;;16.67;;
52043;SDS011;38053;53.100;6.078;2023-05-14T03:20:02;31.20;;;14.98;;
52043;SDS011;38053;53.100;6.078;2023-05-14T03:22:28;26.08;;;14.77;;
52043;SDS011;38053;53.100;6.078;2023-05-14T03:24:54;27.20;;;13.80;;
52043;SDS011;38053;53.100;6.078;2023-05-14T03:27:20;27.60;;;14.35;;
52043;SDS011;38053;53.100;6.078;2023-05-14T03:29:45;22.00;;;14.90;;
52043;SDS011;38053;53.100;6.078;2023-05-14T03:32:11;27.88;;;15.52;;
52043;SDS011;38053;53.100;6.078;2023-05-14T03:34:37;30.42;;;14.75;;
52043;SDS011;38053;53.100;6.078;2023-05-14T03:37:02;27.33;;;15.90;;
52043;SDS011;38053;53.100;6.078;2023-05-14T03:39:28;25.42;;;13.02;;
52043;SDS011;38053;53.100;6.078;2023-05-14T03:41:54;27.30;;;12.98;;
52043;SDS011;38053;53.100;6.078;2023-05-14T03:44:21;25.13;;;13.68;;
52043;SDS011;38053;53.100;6.078;2023-05-14T03:46:46;24.38;;;14.00;;
52043;SDS011;38053;53.100;6.078;2023-05-14T03:49:12;21.10;;;12.00;;
52043;SDS011;38053;53.100;6.078;2023-05-14T03:51:38;20.70;;;11.57;;
52043;SDS011;38053;53.100;6.078;2023-05-14T03:54:04;22.88;;;11.55;;
52043;SDS011;38053;53.100;6.078;2023-05-14T03:56:30;23.38;;;12.13;;
52043;SDS011;38053;53.100;6.078;2023-05-14T03:58:56;24.30;;;11.60;;
52043;SDS011;38053;53.100;6.078;2023-05-14T04:01:21;26.27;;;12.00;;
52043;SDS011;38053;53.100;6.078;2023-05-14T04:03:47;23.52;;;12.02;;
52043;SDS011;38053;53.100;6.078;2023-05-14T04:06:13;25.17;;;12.73;;
52043;SDS011;38053;53.100;6.078;2023-05-14T04:08:38;28.35;;;12.30;;
52043;SDS011;38053;53.100;6.078;2023-05-14T04:11:04;19.17;;;11.82;;
52043;SDS011;38053;53.100;6.078;2023-05-14T04:13:30;33.80;;;13.43;;
52043;SDS011;38053;53.100;6.078;2023-05-14T04:15:55;26.73;;;13.40;;
52043;SDS011;38053;53.100;6.078;2023-05-14T04:18:21;43.33;;;14.60;;
52043;SDS011;38053;53.100;6.078;2023-05-14T04:20:47;27.42;;;12.60;;
52043;SDS011;38053;53.100;6.078;2023-05-14T04:23:12;32.25;;;13.15;;
52043;SDS011;38053;53.100;6.078;2023-05-14T04:25:38;30.92;;;12.45;;
52043;SDS011;38053;53.100;6.078;2023-05-14T04:28:04;22.23;;;11.60;;
52043;SDS011;38053;53.100;6.078;2023-05-14T04:30:30;28.08;;;11.52;;
52043;SDS011;38053;53.100;6.078;2023-05-14T04:32:55;30.60;;;13.77;;
52043;SDS011;38053;53.100;6.078;2023-05-14T04:35:21;27.63;;;12.45;;
52043;SDS011;38053;53.100;6.078;2023-05-14T04:37:47;26.95;;;12.88;;
52043;SDS011;38053;53.100;6.078;2023-05-14T04:40:13;27.88;;;13.38;;
52043;SDS011;38053;53.100;6.078;2023-05-14T04:42:39;29.35;;;13.80;;
52043;SDS011;38053;53.100;6.078;2023-05-14T04:45:05;30.65;;;12.60;;
52043;SDS011;38053;53.100;6.078;2023-05-14T04:47:31;22.52;;;12.60;;
52043;SDS011;38053;53.100;6.078;2023-05-14T04:49:57;32.30;;;13.02;;
52043;SDS011;38053;53.100;6.078;2023-05-14T04:52:23;28.45;;;12.73;;
52043;SDS011;38053;53.100;6.078;2023-05-14T04:54:48;17.90;;;9.77;;
52043;SDS011;38053;53.100;6.078;2023-05-14T04:57:15;27.63;;;10.35;;
52043;SDS011;38053;53.100;6.078;2023-05-14T04:59:40;20.52;;;9.55;;
52043;SDS011;38053;53.100;6.078;2023-05-14T05:02:06;29.50;;;10.80;;
52043;SDS011;38053;53.100;6.078;2023-05-14T05:04:32;26.73;;;9.88;;
52043;SDS011;38053;53.100;6.078;2023-05-14T05:06:58;24.65;;;10.27;;
52043;SDS011;38053;53.100;6.078;2023-05-14T05:09:24;23.30;;;11.05;;
52043;SDS011;38053;53.100;6.078;2023-05-14T05:11:49;32.88;;;12.75;;
52043;SDS011;38053;53.100;6.078;2023-05-14T05:14:15;20.60;;;10.00;;
52043;SDS011;38053;53.100;6.078;2023-05-14T05:16:41;25.92;;;10.70;;
52043;SDS011;38053;53.100;6.078;2023-05-14T05:19:07;24.92;;;10.38;;
52043;SDS011;38053;53.100;6.078;2023-05-14T05:21:33;26.40;;;11.25;;
52043;SDS011;38053;53.100;6.078;2023-05-14T05:23:59;25.13;;;11.35;;
52043;SDS011;38053;53.100;6.078;2023-05-14T05:26:25;28.58;;;11.52;;
52043;SDS011;38053;53.100;6.078;2023-05-14T05:28:52;21.77;;;10.18;;
52043;SDS011;38053;53.100;6.078;2023-05-14T05:31:18;27.63;;;9.45;;
52043;SDS011;38053;53.100;6.078;2023-05-14T05:33:43;22.33;;;10.88;;
52043;SDS011;38053;53.100;6.078;2023-05-14T05:36:09;23.80;;;10.27;;
52043;SDS011;38053;53.100;6.078;2023-05-14T05:38:35;36.65;;;13.27;;
52043;SDS011;38053;53.100;6.078;2023-05-14T05:41:01;20.20;;;9.65;;
52043;SDS011;38053;53.100;6.078;2023-05-14T05:43:26;27.27;;;11.88;;
52043;SDS011;38053;53.100;6.078;2023-05-14T05:45:52;22.50;;;10.25;;
52043;SDS011;38053;53.100;6.078;2023-05-14T05:48:18;21.02;;;9.80;;
52043;SDS011;38053;53.100;6.078;2023-05-14T05:50:48;23.77;;;10.98;;
52043;SDS011;38053;53.100;6.078;2023-05-14T05:53:14;21.33;;;9.48;;
52043;SDS011;38053;53.100;6.078;2023-05-14T05:55:40;22.02;;;9.32;;
52043;SDS011;38053;53.100;6.078;2023-05-14T05:58:06;19.65;;;9.10;;
52043;SDS011;38053;53.100;6.078;2023-05-14T06:00:32;23.10;;;8.93;;
52043;SDS011;38053;53.100;6.078;2023-05-14T06:02:58;21.08;;;8.98;;
52043;SDS011;38053;53.100;6.078;2023-05-14T06:05:24;17.52;;;8.57;;
52043;SDS011;38053;53.100;6.078;2023-05-14T06:07:50;24.27;;;9.13;;
52043;SDS011;38053;53.100;6.078;2023-05-14T06:10:17;19.70;;;7.57;;
52043;SDS011;38053;53.100;6.078;2023-05-14T06:12:43;17.02;;;8.85;;
52043;SDS011;38053;53.100;6.078;2023-05-14T06:15:09;24.55;;;9.55;;
52043;SDS011;38053;53.100;6.078;2023-05-14T06:17:36;24.58;;;9.32;;
52043;SDS011;38053;53.100;6.078;2023-05-14T06:20:02;26.60;;;10.65;;
52043;SDS011;38053;53.100;6.078;2023-05-14T06:22:29;17.30;;;7.95;;
52043;SDS011;38053;53.100;6.078;2023-05-14T06:24:55;23.85;;;9.23;;
52043;SDS011;38053;53.100;6.078;2023-05-14T06:27:21;18.30;;;8.55;;
52043;SDS011;38053;53.100;6.078;2023-05-14T06:29:46;19.00;;;8.25;;
52043;SDS011;38053;53.100;6.078;2023-05-14T06:32:12;24.48;;;10.07;;
52043;SDS011;38053;53.100;6.078;2023-05-14T06:34:39;19.40;;;9.00;;
52043;SDS011;38053;53.100;6.078;2023-05-14T06:37:06;23.73;;;10.10;;
52043;SDS011;38053;53.100;6.078;2023-05-14T06:39:33;26.75;;;11.80;;
52043;SDS011;38053;53.100;6.078;2023-05-14T06:41:59;30.05;;;10.00;;
52043;SDS011;38053;53.100;6.078;2023-05-14T06:44:25;20.00;;;10.32;;
52043;SDS011;38053;53.100;6.078;2023-05-14T06:46:51;20.80;;;11.60;;
52043;SDS011;38053;53.100;6.078;2023-05-14T06:49:17;21.92;;;11.38;;
52043;SDS011;38053;53.100;6.078;2023-05-14T06:51:42;28.35;;;12.63;;
52043;SDS011;38053;53.100;6.078;2023-05-14T06:54:08;24.70;;;9.70;;
52043;SDS011;38053;53.100;6.078;2023-05-14T06:56:34;25.10;;;9.35;;
52043;SDS011;38053;53.100;6.078;2023-05-14T06:59:00;22.63;;;10.27;;
52043;SDS011;38053;53.100;6.078;2023-05-14T07:01:26;30.35;;;11.57;;
52043;SDS011;38053;53.100;6.078;2023-05-14T07:03:52;22.02;;;10.18;;
52043;SDS011;38053;53.100;6.078;2023-05-14T07:06:17;21.58;;;9.50;;
52043;SDS011;38053;53.100;6.078;2023-05-14T07:08:43;20.73;;;9.13;;
52043;SDS011;38053;53.100;6.078;2023-05-14T07:11:10;24.27;;;10.27;;
52043;SDS011;38053;53.100;6.078;2023-05-14T07:13:37;19.08;;;9.15;;
52043;SDS011;38053;53.100;6.078;2023-05-14T07:16:04;29.73;;;12.63;;
52043;SDS011;38053;53.100;6.078;2023-05-14T07:18:30;21.90;;;9.88;;
52043;SDS011;38053;53.100;6.078;2023-05-14T07:20:55;20.77;;;9.98;;
52043;SDS011;38053;53.100;6.078;2023-05-14T07:23:21;28.08;;;9.52;;
52043;SDS011;38053;53.100;6.078;2023-05-14T07:25:47;22.35;;;10.15;;
52043;SDS011;38053;53.100;6.078;2023-05-14T07:28:12;21.58;;;9.35;;
52043;SDS011;38053;53.100;6.078;2023-05-14T07:30:38;26.33;;;10.48;;
52043;SDS011;38053;53.100;6.078;2023-05-14T07:33:04;26.17;;;10.48;;
52043;SDS011;38053;53.100;6.078;2023-05-14T07:35:29;34.53;;;11.52;;
52043;SDS011;38053;53.100;6.078;2023-05-14T07:37:55;17.45;;;8.50;;
52043;SDS011;38053;53.100;6.078;2023-05-14T07:40:21;19.45;;;10.35;;
52043;SDS011;38053;53.100;6.078;2023-05-14T07:42:49;25.58;;;9.27;;
52043;SDS011;38053;53.100;6.078;2023-05-14T07:45:15;24.10;;;8.85;;
52043;SDS011;38053;53.100;6.078;2023-05-14T07:47:41;20.67;;;9.52;;
52043;SDS011;38053;53.100;6.078;2023-05-14T07:50:07;19.73;;;8.77;;
52043;SDS011;38053;53.100;6.078;2023-05-14T07:52:33;22.40;;;10.18;;
52043;SDS011;38053;53.100;6.078;2023-05-14T07:54:59;16.25;;;7.88;;
52043;SDS011;38053;53.100;6.078;2023-05-14T07:57:25;16.15;;;7.88;;
52043;SDS011;38053;53.100;6.078;2023-05-14T07:59:51;17.52;;;8.60;;
52043;SDS011;38053;53.100;6.078;2023-05-14T08:02:17;18.95;;;8.02;;
52043;SDS011;38053;53.100;6.078;2023-05-14T08:04:43;18.25;;;8.00;;
52043;SDS011;38053;53.100;6.078;2023-05-14T08:07:09;20.67;;;8.30;;
52043;SDS011;38053;53.100;6.078;2023-05-14T08:09:35;19.98;;;9.05;;
52043;SDS011;38053;53.100;6.078;2023-05-14T08:12:00;21.23;;;8.75;;
52043;SDS011;38053;53.100;6.078;2023-05-14T08:14:26;18.58;;;7.88;;
52043;SDS011;38053;53.100;6.078;2023-05-14T08:16:52;25.55;;;8.88;;
52043;SDS011;38053;53.100;6.078;2023-05-14T08:19:18;18.98;;;7.43;;
52043;SDS011;38053;53.100;6.078;2023-05-14T08:21:44;20.77;;;8.57;;
52043;SDS011;38053;53.100;6.078;2023-05-14T08:24:10;22.70;;;7.57;;
52043;SDS011;38053;53.100;6.078;2023-05-14T08:26:36;22.48;;;7.65;;
52043;SDS011;38053;53.100;6.078;2023-05-14T08:29:03;22.05;;;6.75;;
52043;SDS011;38053;53.100;6.078;2023-05-14T08:31:29;21.20;;;7.65;;
52043;SDS011;38053;53.100;6.078;2023-05-14T08:33:54;16.80;;;7.10;;
52043;SDS011;38053;53.100;6.078;2023-05-14T08:36:20;14.48;;;6.35;;
52043;SDS011;38053;53.100;6.078;2023-05-14T08:38:46;16.55;;;7.00;;
52043;SDS011;38053;53.100;6.078;2023-05-14T08:41:12;17.15;;;6.75;;
52043;SDS011;38053;53.100;6.078;2023-05-14T08:43:44;16.50;;;6.85;;
52043;SDS011;38053;53.100;6.078;2023-05-14T08:46:28;19.40;;;6.97;;
52043;SDS011;38053;53.100;6.078;2023-05-14T08:48:55;20.80;;;8.40;;
52043;SDS011;38053;53.100;6.078;2023-05-14T08:51:28;16.52;;;6.95;;
52043;SDS011;38053;53.100;6.078;2023-05-14T08:53:54;18.70;;;6.60;;
52043;SDS011;38053;53.100;6.078;2023-05-14T08:56:21;19.42;;;7.05;;
52043;SDS011;38053;53.100;6.078;2023-05-14T08:58:48;13.65;;;6.97;;
52043;SDS011;38053;53.100;6.078;2023-05-14T09:01:14;15.32;;;6.80;;
52043;SDS011;38053;53.100;6.078;2023-05-14T09:03:39;18.42;;;7.38;;
52043;SDS011;38053;53.100;6.078;2023-05-14T09:06:06;18.27;;;6.53;;
52043;SDS011;38053;53.100;6.078;2023-05-14T09:08:32;20.42;;;6.78;;
52043;SDS011;38053;53.100;6.078;2023-05-14T09:11:00;20.10;;;6.82;;
52043;SDS011;38053;53.100;6.078;2023-05-14T09:13:26;15.00;;;6.25;;
52043;SDS011;38053;53.100;6.078;2023-05-14T09:15:51;18.38;;;5.65;;
52043;SDS011;38053;53.100;6.078;2023-05-14T09:18:18;43.90;;;8.77;;
52043;SDS011;38053;53.100;6.078;2023-05-14T09:20:44;14.65;;;6.25;;
52043;SDS011;38053;53.100;6.078;2023-05-14T09:23:11;17.27;;;5.95;;
52043;SDS011;38053;53.100;6.078;2023-05-14T09:25:37;16.08;;;5.82;;
52043;SDS011;38053;53.100;6.078;2023-05-14T09:28:07;19.00;;;6.40;;
52043;SDS011;38053;53.100;6.078;2023-05-14T09:30:33;14.13;;;6.57;;
52043;SDS011;38053;53.100;6.078;2023-05-14T09:33:01;14.70;;;6.07;;
52043;SDS011;38053;53.100;6.078;2023-05-14T09:35:28;15.60;;;6.18;;
52043;SDS011;38053;53.100;6.078;2023-05-14T09:37:54;16.80;;;5.35;;
52043;SDS011;38053;53.100;6.078;2023-05-14T09:40:20;18.15;;;5.90;;
52043;SDS011;38053;53.100;6.078;2023-05-14T09:42:47;13.57;;;6.35;;
52043;SDS011;38053;53.100;6.078;2023-05-14T09:45:14;20.38;;;6.95;;
52043;SDS011;38053;53.100;6.078;2023-05-14T09:47:41;25.13;;;6.97;;
52043;SDS011;38053;53.100;6.078;2023-05-14T09:50:07;17.48;;;5.55;;
52043;SDS011;38053;53.100;6.078;2023-05-14T09:52:33;19.00;;;5.80;;
52043;SDS011;38053;53.100;6.078;2023-05-14T09:54:59;18.90;;;8.27;;
52043;SDS011;38053;53.100;6.078;2023-05-14T09:57:25;15.80;;;7.28;;
52043;SDS011;38053;53.100;6.078;2023-05-14T09:59:51;22.95;;;7.78;;
52043;SDS011;38053;53.100;6.078;2023-05-14T10:02:22;16.33;;;6.85;;
52043;SDS011;38053;53.100;6.078;2023-05-14T10:04:50;18.05;;;7.78;;
52043;SDS011;38053;53.100;6.078;2023-05-14T10:07:20;14.52;;;5.72;;
52043;SDS011;38053;53.100;6.078;2023-05-14T10:09:47;19.98;;;6.75;;
52043;SDS011;38053;53.100;6.078;2023-05-14T10:12:15;15.75;;;7.70;;
52043;SDS011;38053;53.100;6.078;2023-05-14T10:14:46;15.85;;;6.45;;
52043;SDS011;38053;53.100;6.078;2023-05-14T10:17:15;16.15;;;6.18;;
52043;SDS011;38053;53.100;6.078;2023-05-14T10:19:49;16.88;;;6.10;;
52043;SDS011;38053;53.100;6.078;2023-05-14T10:22:21;18.60;;;5.85;;
52043;SDS011;38053;53.100;6.078;2023-05-14T10:24:48;14.32;;;6.05;;
52043;SDS011;38053;53.100;6.078;2023-05-14T10:27:17;11.57;;;6.50;;
52043;SDS011;38053;53.100;6.078;2023-05-14T10:29:49;14.65;;;6.55;;
52043;SDS011;38053;53.100;6.078;2023-05-14T10:32:20;18.50;;;6.90;;
52043;SDS011;38053;53.100;6.078;2023-05-14T10:34:49;11.68;;;5.85;;
52043;SDS011;38053;53.100;6.078;2023-05-14T10:37:22;18.25;;;6.90;;
52043;SDS011;38053;53.100;6.078;2023-05-14T10:39:53;12.98;;;5.72;;
52043;SDS011;38053;53.100;6.078;2023-05-14T10:42:31;15.60;;;6.25;;
52043;SDS011;38053;53.100;6.078;2023-05-14T10:45:05;10.68;;;6.20;;
52043;SDS011;38053;53.100;6.078;2023-05-14T10:47:33;17.08;;;5.88;;
52043;SDS011;38053;53.100;6.078;2023-05-14T10:50:04;13.13;;;6.07;;
52043;SDS011;38053;53.100;6.078;2023-05-14T10:52:32;18.38;;;6.28;;
52043;SDS011;38053;53.100;6.078;2023-05-14T10:55:02;16.08;;;5.90;;
52043;SDS011;38053;53.100;6.078;2023-05-14T10:57:36;22.40;;;6.38;;
52043;SDS011;38053;53.100;6.078;2023-05-14T11:00:03;18.58;;;6.55;;
52043;SDS011;38053;53.100;6.078;2023-05-14T11:02:37;14.70;;;6.57;;
52043;SDS011;38053;53.100;6.078;2023-05-14T11:05:07;11.65;;;5.78;;
52043;SDS011;38053;53.100;6.078;2023-05-14T11:07:44;18.58;;;8.32;;
52043;SDS011;38053;53.100;6.078;2023-05-14T11:10:12;14.98;;;6.28;;
52043;SDS011;38053;53.100;6.078;2023-05-14T11:12:44;16.58;;;6.97;;
52043;SDS011;38053;53.100;6.078;2023-05-14T11:15:12;17.52;;;6.43;;
52043;SDS011;38053;53.100;6.078;2023-05-14T11:17:40;12.23;;;5.55;;
52043;SDS011;38053;53.100;6.078;2023-05-14T11:20:07;12.18;;;6.38;;
52043;SDS011;38053;53.100;6.078;2023-05-14T11:22:34;12.98;;;5.13;;
52043;SDS011;38053;53.100;6.078;2023-05-14T11:25:00;12.10;;;5.47;;
52043;SDS011;38053;53.100;6.078;2023-05-14T11:27:26;13.52;;;5.60;;
52043;SDS011;38053;53.100;6.078;2023-05-14T11:29:52;13.10;;;4.95;;
52043;SDS011;38053;53.100;6.078;2023-05-14T11:32:20;12.30;;;6.43;;
52043;SDS011;38053;53.100;6.078;2023-05-14T11:34:45;10.32;;;5.72;;
52043;SDS011;38053;53.100;6.078;2023-05-14T11:37:12;13.60;;;6.35;;
52043;SDS011;38053;53.100;6.078;2023-05-14T11:39:45;13.23;;;5.78;;
52043;SDS011;38053;53.100;6.078;2023-05-14T11:42:12;14.13;;;6.18;;
52043;SDS011;38053;53.100;6.078;2023-05-14T11:44:40;12.75;;;5.05;;
52043;SDS011;38053;53.100;6.078;2023-05-14T11:47:08;16.63;;;5.35;;
52043;SDS011;38053;53.100;6.078;2023-05-14T11:49:35;8.93;;;5.15;;
52043;SDS011;38053;53.100;6.078;2023-05-14T11:52:02;8.73;;;5.22;;
52043;SDS011;38053;53.100;6.078;2023-05-14T11:54:30;10.70;;;5.45;;
52043;SDS011;38053;53.100;6.078;2023-05-14T11:56:57;14.30;;;5.20;;
52043;SDS011;38053;53.100;6.078;2023-05-14T11:59:24;11.20;;;5.90;;
52043;SDS011;38053;53.100;6.078;2023-05-14T12:01:57;11.73;;;5.65;;
52043;SDS011;38053;53.100;6.078;2023-05-14T12:04:23;18.05;;;6.28;;
52043;SDS011;38053;53.100;6.078;2023-05-14T12:06:52;10.52;;;5.40;;
52043;SDS011;38053;53.100;6.078;2023-05-14T12:09:19;11.07;;;4.32;;
52043;SDS011;38053;53.100;6.078;2023-05-14T12:11:46;19.67;;;5.72;;
52043;SDS011;38053;53.100;6.078;2023-05-14T12:14:14;10.35;;;5.63;;
52043;SDS011;38053;53.100;6.078;2023-05-14T12:16:42;10.07;;;4.78;;
52043;SDS011;38053;53.100;6.078;2023-05-14T12:19:09;12.48;;;5.55;;
52043;SDS011;38053;53.100;6.078;2023-05-14T12:21:35;8.75;;;4.55;;
52043;SDS011;38053;53.100;6.078;2023-05-14T12:24:02;9.65;;;5.05;;
52043;SDS011;38053;53.100;6.078;2023-05-14T12:26:31;15.13;;;5.72;;
52043;SDS011;38053;53.100;6.078;2023-05-14T12:29:01;11.20;;;5.30;;
52043;SDS011;38053;53.100;6.078;2023-05-14T12:31:28;11.20;;;4.70;;
52043;SDS011;38053;53.100;6.078;2023-05-14T12:33:54;11.15;;;5.18;;
52043;SDS011;38053;53.100;6.078;2023-05-14T12:36:19;14.95;;;4.93;;
52043;SDS011;38053;53.100;6.078;2023-05-14T12:38:45;11.65;;;5.53;;
52043;SDS011;38053;53.100;6.078;2023-05-14T12:41:11;18.05;;;5.40;;
52043;SDS011;38053;53.100;6.078;2023-05-14T12:43:37;12.07;;;4.63;;
52043;SDS011;38053;53.100;6.078;2023-05-14T12:46:03;15.50;;;5.32;;
52043;SDS011;38053;53.100;6.078;2023-05-14T12:48:29;10.18;;;5.50;;
52043;SDS011;38053;53.100;6.078;2023-05-14T12:50:55;13.73;;;5.72;;
52043;SDS011;38053;53.100;6.078;2023-05-14T12:53:21;12.00;;;5.00;;
52043;SDS011;38053;53.100;6.078;2023-05-14T12:55:46;9.60;;;5.18;;
52043;SDS011;38053;53.100;6.078;2023-05-14T12:58:13;13.32;;;5.80;;
52043;SDS011;38053;53.100;6.078;2023-05-14T13:00:39;11.27;;;5.55;;
52043;SDS011;38053;53.100;6.078;2023-05-14T13:03:04;15.55;;;5.82;;
52043;SDS011;38053;53.100;6.078;2023-05-14T13:05:30;10.02;;;4.60;;
52043;SDS011;38053;53.100;6.078;2023-05-14T13:07:57;9.10;;;3.90;;
52043;SDS011;38053;53.100;6.078;2023-05-14T13:10:24;13.13;;;4.60;;
52043;SDS011;38053;53.100;6.078;2023-05-14T13:12:50;10.88;;;4.97;;
52043;SDS011;38053;53.100;6.078;2023-05-14T13:15:17;17.83;;;5.55;;
52043;SDS011;38053;53.100;6.078;2023-05-14T13:17:42;11.50;;;5.43;;
52043;SDS011;38053;53.100;6.078;2023-05-14T13:20:08;11.35;;;5.30;;
52043;SDS011;38053;53.100;6.078;2023-05-14T13:22:34;16.60;;;4.50;;
52043;SDS011;38053;53.100;6.078;2023-05-14T13:25:00;15.18;;;5.28;;
52043;SDS011;38053;53.100;6.078;2023-05-14T13:27:25;13.70;;;4.40;;
52043;SDS011;38053;53.100;6.078;2023-05-14T13:29:51;9.75;;;4.10;;
52043;SDS011;38053;53.100;6.078;2023-05-14T13:32:17;11.07;;;3.92;;
52043;SDS011;38053;53.100;6.078;2023-05-14T13:34:43;12.13;;;4.03;;
52043;SDS011;38053;53.100;6.078;2023-05-14T13:37:08;14.43;;;4.30;;
52043;SDS011;38053;53.100;6.078;2023-05-14T13:39:35;12.70;;;4.97;;
52043;SDS011;38053;53.100;6.078;2023-05-14T13:42:00;11.38;;;5.00;;
52043;SDS011;38053;53.100;6.078;2023-05-14T13:44:26;9.63;;;4.53;;
52043;SDS011;38053;53.100;6.078;2023-05-14T13:46:52;9.13;;;4.63;;
52043;SDS011;38053;53.100;6.078;2023-05-14T13:49:18;9.50;;;4.35;;
52043;SDS011;38053;53.100;6.078;2023-05-14T13:51:43;8.80;;;4.43;;
52043;SDS011;38053;53.100;6.078;2023-05-14T13:54:09;15.02;;;4.20;;
52043;SDS011;38053;53.100;6.078;2023-05-14T13:56:35;9.05;;;4.25;;
52043;SDS011;38053;53.100;6.078;2023-05-14T13:59:00;10.75;;;5.53;;
52043;SDS011;38053;53.100;6.078;2023-05-14T14:01:27;12.85;;;4.88;;
52043;SDS011;38053;53.100;6.078;2023-05-14T14:03:55;8.73;;;4.72;;
52043;SDS011;38053;53.100;6.078;2023-05-14T14:06:20;9.10;;;5.18;;
52043;SDS011;38053;53.100;6.078;2023-05-14T14:08:46;12.23;;;6.32;;
52043;SDS011;38053;53.100;6.078;2023-05-14T14:11:12;10.75;;;5.60;;
52043;SDS011;38053;53.100;6.078;2023-05-14T14:13:38;13.23;;;5.47;;
52043;SDS011;38053;53.100;6.078;2023-05-14T14:16:04;10.98;;;5.28;;
52043;SDS011;38053;53.100;6.078;2023-05-14T14:18:30;13.13;;;5.75;;
52043;SDS011;38053;53.100;6.078;2023-05-14T14:20:56;11.43;;;5.53;;
52043;SDS011;38053;53.100;6.078;2023-05-14T14:23:22;14.25;;;5.72;;
52043;SDS011;38053;53.100;6.078;2023-05-14T14:25:48;10.63;;;4.80;;
52043;SDS011;38053;53.100;6.078;2023-05-14T14:28:13;10.73;;;5.32;;
52043;SDS011;38053;53.100;6.078;2023-05-14T14:30:39;11.13;;;5.07;;
52043;SDS011;38053;53.100;6.078;2023-05-14T14:33:05;12.68;;;5.80;;
52043;SDS011;38053;53.100;6.078;2023-05-14T14:35:31;16.85;;;5.63;;